Time;durP1;ratioP1;P1;durP2;ratioP2;P2;SDS_P1;SDS_P2;PMS_P1;PMS_P2;Temp;Humidity;BMP_temperature;BMP_pressure;BME280_temperature;BME280_humidity;BME280_pressure;Samples;Min_cycle;Max_cycle;Signal;HPM_P1;HPM_P2
2024/01/28 00:00:43;;;;;;;9.50;0.70;;;;;;;2.53;81.50;102183.13;4998747;28;20453;-75
2024/01/28 00:03:10;;;;;;;9.90;0.60;;;;;;;2.54;81.59;102181.41;5002709;28;20811;-74
2024/01/28 00:05:39;;;;;;;12.77;0.55;;;;;;;2.55;81.51;102188.31;4994802;28;20133;-74
2024/01/28 00:08:05;;;;;;;6.80;0.38;;;;;;;2.56;81.33;102197.84;4992066;28;20081;-74
2024/01/28 00:10:32;;;;;;;12.20;0.50;;;;;;;2.56;81.30;102192.69;5000543;28;20146;-75
2024/01/28 00:12:59;;;;;;;10.95;0.60;;;;;;;2.56;81.50;102198.72;5000905;28;20817;-74
2024/01/28 00:15:26;;;;;;;7.10;0.73;;;;;;;2.58;81.45;102201.34;4998721;28;20085;-76
2024/01/28 00:17:55;;;;;;;8.13;1.38;;;;;;;2.59;80.97;102203.13;4999429;28;20084;-74
2024/01/28 00:20:25;;;;;;;13.10;2.35;;;;;;;2.59;81.28;102187.63;4998953;28;20057;-74
2024/01/28 00:22:54;;;;;;;9.98;1.00;;;;;;;2.61;81.42;102185.94;5002334;28;20042;-74
2024/01/28 00:25:21;;;;;;;7.13;0.38;;;;;;;2.62;81.44;102186.84;4998432;28;20515;-74
2024/01/28 00:27:48;;;;;;;12.75;0.50;;;;;;;2.63;81.23;102199.78;5000039;28;20085;-75
2024/01/28 00:30:15;;;;;;;4.25;0.73;;;;;;;2.64;81.27;102196.38;4998501;28;20453;-74
2024/01/28 00:32:42;;;;;;;8.52;0.93;;;;;;;2.64;81.30;102196.38;4998191;28;20050;-86
2024/01/28 00:35:09;;;;;;;10.88;0.80;;;;;;;2.62;80.93;102182.53;5011409;28;20519;-89
2024/01/28 00:37:36;;;;;;;9.85;0.60;;;;;;;2.67;81.25;102198.19;5007567;28;20555;-88
2024/01/28 00:40:05;;;;;;;4.90;0.70;;;;;;;2.68;81.22;102194.78;5001648;28;20457;-89
2024/01/28 00:42:32;;;;;;;7.47;0.88;;;;;;;2.68;81.12;102192.19;5003460;28;20125;-88
2024/01/28 00:45:02;;;;;;;4.70;0.60;;;;;;;2.69;80.91;102188.78;5002366;28;20072;-88
2024/01/28 00:47:28;;;;;;;9.68;0.40;;;;;;;2.69;81.24;102186.19;5006115;28;20050;-87
2024/01/28 00:49:55;;;;;;;11.65;0.68;;;;;;;2.71;81.10;102197.47;5005565;28;20062;-90
2024/01/28 00:52:22;;;;;;;12.15;1.50;;;;;;;2.71;81.15;102193.16;5011064;28;20058;-87
2024/01/28 00:54:49;;;;;;;4.35;1.02;;;;;;;2.72;81.26;102192.34;5013525;28;20081;-87
2024/01/28 00:57:18;;;;;;;6.28;0.30;;;;;;;2.73;81.12;102196.69;5007075;28;20078;-88
2024/01/28 00:59:45;;;;;;;7.00;0.60;;;;;;;2.69;81.10;102183.59;5011912;28;20049;-86
2024/01/28 01:02:11;;;;;;;7.10;0.80;;;;;;;2.75;81.19;102188.97;5005346;28;20096;-88
2024/01/28 01:04:39;;;;;;;11.73;0.50;;;;;;;2.76;80.75;102185.56;5009480;28;20046;-89
2024/01/28 01:07:06;;;;;;;13.50;0.80;;;;;;;2.76;80.71;102185.56;4993004;28;20566;-88
2024/01/28 01:09:35;;;;;;;10.35;1.20;;;;;;;2.77;81.20;102183.03;5004501;28;20128;-88
2024/01/28 01:12:04;;;;;;;5.28;0.40;;;;;;;2.65;80.80;102161.97;5009342;28;20050;-87
2024/01/28 01:14:37;;;;;;;9.13;0.60;;;;;;;2.75;80.75;102176.03;5004165;28;20073;-87
2024/01/28 01:17:05;;;;;;;6.57;0.40;;;;;;;2.75;80.84;102178.63;5003697;28;20061;-86
2024/01/28 01:19:32;;;;;;;11.02;0.47;;;;;;;2.77;80.97;102188.19;5007535;28;20046;-88
2024/01/28 01:22:01;;;;;;;10.25;1.27;;;;;;;2.82;80.84;102196.97;5012553;28;20078;-87
2024/01/28 01:24:28;;;;;;;8.20;1.23;;;;;;;2.83;80.93;102198.72;5005840;28;20077;-88
2024/01/28 01:26:55;;;;;;;14.82;0.43;;;;;;;2.84;80.76;102197.00;5008302;28;20084;-86
2024/01/28 01:29:22;;;;;;;8.43;0.77;;;;;;;2.85;80.82;102200.50;5010290;28;20074;-87
2024/01/28 01:31:51;;;;;;;11.57;0.47;;;;;;;2.86;80.75;102203.13;5004468;28;20054;-74
2024/01/28 01:34:18;;;;;;;10.40;0.45;;;;;;;2.87;80.88;102215.22;4997553;28;20042;-74
2024/01/28 01:36:45;;;;;;;9.23;0.50;;;;;;;2.87;80.80;102216.91;5001763;28;20042;-74
2024/01/28 01:39:15;;;;;;;9.15;0.80;;;;;;;2.88;80.87;102213.53;5002279;28;20177;-74
2024/01/28 01:41:42;;;;;;;13.82;0.80;;;;;;;2.89;80.88;102210.09;5002285;28;20139;-72
2024/01/28 01:44:09;;;;;;;10.45;0.50;;;;;;;2.88;80.93;102216.09;5000751;28;20608;-70
2024/01/28 01:46:36;;;;;;;13.25;0.75;;;;;;;2.90;80.77;102214.41;4997606;28;20193;-71
2024/01/28 01:49:05;;;;;;;6.85;0.35;;;;;;;2.91;80.83;102219.66;4999649;28;20108;-71
2024/01/28 01:51:33;;;;;;;8.85;0.50;;;;;;;2.91;80.81;102223.97;4996408;28;20124;-70
2024/01/28 01:54:01;;;;;;;10.30;0.30;;;;;;;2.92;80.63;102230.88;4998671;28;20612;-71
2024/01/28 01:56:30;;;;;;;7.65;0.73;;;;;;;2.93;80.86;102230.06;4999610;28;20088;-71
2024/01/28 01:58:57;;;;;;;10.00;0.40;;;;;;;2.94;81.02;102226.63;4997312;28;20076;-71
2024/01/28 02:01:27;;;;;;;9.93;0.50;;;;;;;2.94;80.72;102234.38;5002090;28;20125;-70
2024/01/28 02:03:57;;;;;;;7.35;0.45;;;;;;;2.95;80.74;102236.13;4999585;28;20046;-71
2024/01/28 02:06:26;;;;;;;7.50;1.33;;;;;;;2.95;80.81;102239.59;5002106;28;20500;-71
2024/01/28 02:08:53;;;;;;;8.98;0.40;;;;;;;2.96;80.67;102241.38;5004834;28;20132;-71
2024/01/28 02:11:21;;;;;;;10.43;0.60;;;;;;;2.97;80.69;102243.13;5000784;28;20113;-71
2024/01/28 02:13:48;;;;;;;6.80;0.32;;;;;;;2.97;80.59;102244.81;5000620;28;20080;-70
2024/01/28 02:16:15;;;;;;;10.27;0.65;;;;;;;2.98;80.61;102239.69;5000625;28;20121;-70
2024/01/28 02:18:42;;;;;;;5.63;0.43;;;;;;;2.99;80.59;102244.06;5002569;28;20197;-70
2024/01/28 02:21:09;;;;;;;10.20;0.47;;;;;;;3.00;80.66;102252.69;4997919;28;20073;-71
2024/01/28 02:23:37;;;;;;;7.40;0.47;;;;;;;3.00;80.48;102250.97;4993104;28;20488;-70
2024/01/28 02:26:05;;;;;;;9.45;1.65;;;;;;;3.00;80.36;102256.13;5003323;28;20081;-70
2024/01/28 02:28:31;;;;;;;6.07;0.40;;;;;;;3.01;80.45;102255.34;5001460;28;20084;-71
2024/01/28 02:30:58;;;;;;;7.85;0.30;;;;;;;3.02;80.53;102259.66;4985384;28;20042;-70
2024/01/28 02:33:25;;;;;;;6.38;0.50;;;;;;;3.03;80.71;102252.78;4983408;28;20125;-71
2024/01/28 02:35:52;;;;;;;10.20;0.60;;;;;;;3.02;80.53;102262.25;4983815;28;20117;-71
2024/01/28 02:38:19;;;;;;;13.57;1.38;;;;;;;3.04;80.65;102257.09;4979708;28;20078;-71
2024/01/28 02:40:49;;;;;;;6.18;0.40;;;;;;;3.05;80.53;102256.31;4982000;28;20418;-74
2024/01/28 02:43:16;;;;;;;6.85;0.95;;;;;;;3.06;80.48;102252.88;4983595;28;20046;-75
2024/01/28 02:45:43;;;;;;;12.27;0.60;;;;;;;3.06;80.42;102258.91;4983337;28;20084;-74
2024/01/28 02:48:10;;;;;;;6.40;0.40;;;;;;;3.09;80.47;102263.31;4981603;28;20077;-74
2024/01/28 02:50:37;;;;;;;4.63;0.60;;;;;;;3.09;80.36;102263.31;4983953;28;20659;-74
2024/01/28 02:53:05;;;;;;;6.25;1.08;;;;;;;3.10;80.25;102266.78;4983723;28;20054;-77
2024/01/28 02:55:31;;;;;;;7.22;0.60;;;;;;;3.10;80.33;102270.25;4985302;28;20046;-76
2024/01/28 02:58:00;;;;;;;4.47;0.50;;;;;;;3.10;80.24;102275.44;4981202;28;20109;-76
2024/01/28 03:00:27;;;;;;;5.15;0.38;;;;;;;3.10;80.33;102270.25;4984050;28;20082;-76
2024/01/28 03:02:54;;;;;;;7.50;0.70;;;;;;;3.10;80.42;102270.25;4983703;28;20106;-76
2024/01/28 03:05:20;;;;;;;9.35;0.47;;;;;;;3.11;80.08;102269.41;4982093;28;20808;-76
2024/01/28 03:07:47;;;;;;;13.93;0.45;;;;;;;3.11;80.18;102273.72;4984048;28;20085;-76
2024/01/28 03:10:14;;;;;;;11.15;1.73;;;;;;;3.12;80.20;102284.09;4981441;28;20089;-76
2024/01/28 03:12:41;;;;;;;4.57;0.30;;;;;;;3.13;80.25;102282.41;4980496;28;20078;-76
2024/01/28 03:15:10;;;;;;;6.38;1.30;;;;;;;3.13;80.29;102292.75;4981321;28;20502;-75
2024/01/28 03:17:38;;;;;;;14.02;0.85;;;;;;;3.14;80.37;102277.28;4978025;28;20051;-76
2024/01/28 03:20:06;;;;;;;9.55;0.40;;;;;;;3.13;80.22;102283.28;4978483;28;20074;-76
2024/01/28 03:22:33;;;;;;;5.55;1.25;;;;;;;3.14;80.08;102285.03;4977376;28;20125;-76
2024/01/28 03:25:00;;;;;;;14.50;0.98;;;;;;;3.14;80.21;102287.63;4985691;28;20163;-75
2024/01/28 03:27:27;;;;;;;6.65;0.60;;;;;;;3.15;80.02;102297.13;4982492;28;20082;-76
2024/01/28 03:29:54;;;;;;;11.25;0.47;;;;;;;3.14;80.20;102295.38;4996580;28;20069;-75
2024/01/28 03:32:22;;;;;;;10.57;1.00;;;;;;;3.16;80.31;102292.84;5002844;28;20929;-76
2024/01/28 03:34:49;;;;;;;6.68;0.40;;;;;;;3.17;80.08;102282.53;5001857;28;20076;-75
2024/01/28 03:37:16;;;;;;;4.63;0.43;;;;;;;3.19;80.16;102290.38;5002190;28;20512;-76
2024/01/28 03:39:43;;;;;;;8.65;1.13;;;;;;;3.18;80.16;102288.59;5000049;28;20077;-75
2024/01/28 03:42:11;;;;;;;3.67;0.75;;;;;;;3.15;80.15;102284.19;4998299;28;20487;-77
2024/01/28 03:44:38;;;;;;;7.28;0.52;;;;;;;3.19;80.10;102300.72;5002234;28;20073;-76
2024/01/28 03:47:05;;;;;;;7.50;1.23;;;;;;;3.19;80.04;102317.09;5004822;28;20084;-75
2024/01/28 03:49:33;;;;;;;8.05;0.70;;;;;;;3.20;79.83;102320.56;5000611;28;20085;-76
2024/01/28 03:52:01;;;;;;;11.75;0.47;;;;;;;3.20;80.24;102292.09;5001132;28;20050;-77
2024/01/28 03:54:27;;;;;;;12.38;0.47;;;;;;;3.19;80.04;102293.81;4999987;28;20046;-76
2024/01/28 03:56:54;;;;;;;7.90;0.60;;;;;;;3.19;80.04;102288.66;5002225;28;20081;-77
2024/01/28 03:59:21;;;;;;;9.23;0.50;;;;;;;3.21;80.12;102293.84;5002794;28;20050;-76
2024/01/28 04:01:48;;;;;;;6.03;0.50;;;;;;;3.21;80.02;102294.75;5000589;28;20042;-74
2024/01/28 04:04:15;;;;;;;8.07;0.82;;;;;;;3.21;79.97;102281.81;4999912;28;20471;-74
2024/01/28 04:06:44;;;;;;;12.88;0.80;;;;;;;3.21;80.01;102289.59;4999764;28;20133;-74
2024/01/28 04:09:11;;;;;;;11.93;0.82;;;;;;;3.22;79.81;102287.88;4999296;28;20129;-77
2024/01/28 04:11:38;;;;;;;8.10;0.50;;;;;;;3.22;80.01;102286.16;5002745;28;20052;-75
2024/01/28 04:14:05;;;;;;;10.00;1.50;;;;;;;3.23;79.86;102276.69;5002597;28;20050;-74
2024/01/28 04:16:33;;;;;;;7.30;0.68;;;;;;;3.23;79.85;102285.31;5000078;28;20509;-73
2024/01/28 04:18:59;;;;;;;10.55;0.50;;;;;;;3.24;79.79;102288.78;4998650;28;20057;-75
2024/01/28 04:21:28;;;;;;;9.65;0.50;;;;;;;3.23;79.93;102282.72;4999011;28;20508;-75
2024/01/28 04:23:57;;;;;;;10.52;0.88;;;;;;;3.24;79.76;102283.59;4999919;28;20141;-74
2024/01/28 04:26:24;;;;;;;12.18;0.50;;;;;;;3.24;80.08;102288.78;5000936;28;20051;-74
2024/01/28 04:28:51;;;;;;;9.38;0.82;;;;;;;3.24;79.98;102281.91;4999739;28;20670;-74
2024/01/28 04:31:19;;;;;;;5.32;0.40;;;;;;;3.24;79.86;102279.34;5003221;28;20133;-74
2024/01/28 04:33:46;;;;;;;6.22;0.47;;;;;;;3.24;79.88;102284.50;4999627;28;20050;-74
2024/01/28 04:36:13;;;;;;;13.38;0.63;;;;;;;3.24;79.81;102294.84;5000463;28;20538;-74
2024/01/28 04:38:40;;;;;;;8.45;0.63;;;;;;;3.25;79.81;102301.78;5000049;28;20128;-74
2024/01/28 04:41:09;;;;;;;13.93;1.13;;;;;;;3.24;79.86;102305.19;4998993;28;20081;-74
2024/01/28 04:43:39;;;;;;;8.38;0.50;;;;;;;3.24;79.85;102305.19;4998166;28;20053;-74
2024/01/28 04:46:06;;;;;;;3.97;0.40;;;;;;;3.25;79.94;102319.88;5001537;28;20053;-75
2024/01/28 04:48:33;;;;;;;6.55;0.40;;;;;;;3.26;79.79;102321.63;5001373;28;20484;-74
2024/01/28 04:51:00;;;;;;;19.70;0.85;;;;;;;3.26;79.81;102331.97;5000401;28;20129;-74
2024/01/28 04:53:27;;;;;;;12.00;0.65;;;;;;;3.27;79.86;102330.28;4997586;28;20082;-74
2024/01/28 04:55:54;;;;;;;12.48;0.57;;;;;;;3.25;80.01;102325.06;4997980;28;20492;-75
2024/01/28 04:58:23;;;;;;;12.70;0.52;;;;;;;3.26;79.86;102319.03;4998635;28;20129;-74
2024/01/28 05:00:50;;;;;;;12.43;0.40;;;;;;;3.27;79.76;102327.72;4998865;28;20126;-74
2024/01/28 05:03:17;;;;;;;7.05;0.90;;;;;;;3.27;79.74;102327.72;4998821;28;20050;-76
2024/01/28 05:05:44;;;;;;;12.52;0.55;;;;;;;3.27;79.96;102328.56;5002658;28;20052;-74
2024/01/28 05:08:11;;;;;;;9.57;0.85;;;;;;;3.27;79.96;102333.75;4998634;28;20281;-74
2024/01/28 05:10:39;;;;;;;6.75;0.70;;;;;;;3.26;79.85;102339.72;4999863;28;20115;-74
2024/01/28 05:13:06;;;;;;;11.68;0.90;;;;;;;3.27;80.06;102344.09;4991313;28;20513;-74
2024/01/28 05:15:34;;;;;;;13.10;0.60;;;;;;;3.27;80.18;102341.50;4994045;28;20078;-74
2024/01/28 05:18:01;;;;;;;15.05;0.95;;;;;;;3.27;79.93;102343.22;4999631;28;20089;-74
2024/01/28 05:20:28;;;;;;;11.15;0.68;;;;;;;3.26;80.05;102342.31;4997763;28;20091;-74
2024/01/28 05:22:59;;;;;;;12.93;1.20;;;;;;;3.27;79.91;102343.22;5000356;28;20074;-74
2024/01/28 05:25:26;;;;;;;8.35;0.68;;;;;;;3.28;79.75;102338.09;4997963;28;20508;-74
2024/01/28 05:27:53;;;;;;;19.27;2.25;;;;;;;3.28;80.08;102342.38;4999363;28;20046;-74
2024/01/28 05:30:21;;;;;;;10.38;0.80;;;;;;;3.28;79.85;102345.84;5000279;28;20120;-75
2024/01/28 05:32:49;;;;;;;11.43;1.42;;;;;;;3.29;79.83;102345.00;4998783;28;20104;-74
2024/01/28 05:35:17;;;;;;;19.75;0.70;;;;;;;3.29;80.02;102345.00;4998254;28;20133;-76
2024/01/28 05:37:44;;;;;;;10.32;0.63;;;;;;;3.30;79.75;102332.97;5001442;28;20081;-75
2024/01/28 05:40:12;;;;;;;18.35;1.05;;;;;;;3.31;79.84;102336.44;5001346;28;20101;-74
2024/01/28 05:42:39;;;;;;;10.68;0.80;;;;;;;3.31;79.80;102341.59;5006417;28;20129;-75
2024/01/28 05:45:07;;;;;;;10.05;1.38;;;;;;;3.31;79.99;102347.66;4993839;28;20121;-75
2024/01/28 05:47:34;;;;;;;7.13;0.43;;;;;;;3.31;79.75;102350.25;5003696;28;20050;-74
2024/01/28 05:50:03;;;;;;;12.63;1.50;;;;;;;3.29;79.87;102351.91;5004142;28;20133;-74
2024/01/28 05:52:30;;;;;;;11.15;0.50;;;;;;;3.32;79.79;102356.28;5001709;28;20500;-74
2024/01/28 05:54:57;;;;;;;18.33;0.75;;;;;;;3.32;79.65;102380.44;5003267;28;20176;-74
2024/01/28 05:57:24;;;;;;;6.15;0.93;;;;;;;3.29;79.84;102365.69;5002169;28;20125;-75
2024/01/28 05:59:51;;;;;;;11.85;0.40;;;;;;;3.32;79.75;102385.63;5002427;28;20057;-75
2024/01/28 06:02:18;;;;;;;11.98;0.47;;;;;;;3.33;79.90;102381.34;5001229;28;20620;-75
2024/01/28 06:04:45;;;;;;;12.63;1.65;;;;;;;3.33;79.69;102376.19;5004546;28;20133;-75
2024/01/28 06:07:13;;;;;;;9.25;1.00;;;;;;;3.33;79.82;102371.00;5005218;28;20493;-74
2024/01/28 06:09:40;;;;;;;8.15;0.55;;;;;;;3.32;79.80;102369.22;4999807;28;20073;-74
2024/01/28 06:12:07;;;;;;;21.17;2.80;;;;;;;3.34;79.94;102371.03;5002306;28;20093;-77
2024/01/28 06:14:34;;;;;;;12.88;1.10;;;;;;;3.34;79.75;102381.38;5003187;28;20116;-76
2024/01/28 06:17:01;;;;;;;11.38;0.88;;;;;;;3.35;79.82;102385.72;5006949;28;20723;-77
2024/01/28 06:19:28;;;;;;;9.30;1.00;;;;;;;3.35;79.80;102369.31;5006439;28;20081;-77
2024/01/28 06:21:55;;;;;;;10.63;0.43;;;;;;;3.36;79.83;102371.09;5004061;28;20581;-76
2024/01/28 06:24:24;;;;;;;7.18;0.63;;;;;;;3.36;79.73;102371.09;5002326;28;20086;-76
2024/01/28 06:26:51;;;;;;;17.13;2.20;;;;;;;3.36;79.64;102373.69;5003369;28;20097;-76
2024/01/28 06:29:17;;;;;;;21.85;2.60;;;;;;;3.36;79.82;102373.69;5003375;28;20136;-75
2024/01/28 06:31:46;;;;;;;14.63;0.63;;;;;;;3.37;79.89;102383.19;4999469;28;20512;-76
2024/01/28 06:34:13;;;;;;;9.77;0.30;;;;;;;3.36;79.86;102392.66;5001902;28;20058;-76
2024/01/28 06:36:39;;;;;;;18.65;1.30;;;;;;;3.37;79.67;102388.38;4997059;28;20093;-76
2024/01/28 06:39:07;;;;;;;10.07;1.15;;;;;;;3.37;79.66;102390.97;5002443;28;20120;-75
2024/01/28 06:41:37;;;;;;;8.48;1.30;;;;;;;3.38;79.51;102405.63;5002012;28;20041;-76
2024/01/28 06:44:04;;;;;;;9.65;1.42;;;;;;;3.37;79.72;102393.53;4998475;28;20046;-76
2024/01/28 06:46:31;;;;;;;10.80;0.50;;;;;;;3.37;79.72;102393.53;4999510;28;20086;-76
2024/01/28 06:48:58;;;;;;;12.70;0.60;;;;;;;3.37;79.61;102399.59;4998322;28;20050;-76
2024/01/28 06:51:25;;;;;;;14.55;1.05;;;;;;;3.37;79.60;102385.78;5004218;28;20085;-76
2024/01/28 06:53:52;;;;;;;15.32;0.77;;;;;;;3.37;79.63;102390.97;4999557;28;20074;-76
2024/01/28 06:56:19;;;;;;;11.02;0.68;;;;;;;3.37;79.76;102389.25;5000115;28;20046;-76
2024/01/28 06:58:47;;;;;;;9.88;0.60;;;;;;;3.39;79.78;102386.72;4999367;28;20096;-76
2024/01/28 07:01:14;;;;;;;16.50;0.70;;;;;;;3.39;79.69;102394.47;5002389;28;20046;-76
2024/01/28 07:03:41;;;;;;;10.38;0.60;;;;;;;3.39;79.85;102402.25;5003390;28;20129;-76
2024/01/28 07:06:08;;;;;;;15.32;0.93;;;;;;;3.40;79.63;102406.56;5004173;28;20078;-76
2024/01/28 07:08:35;;;;;;;10.35;0.50;;;;;;;3.38;79.65;102390.13;5003962;28;20077;-76
2024/01/28 07:11:04;;;;;;;14.27;0.90;;;;;;;3.38;79.81;102385.81;4999678;28;20089;-76
2024/01/28 07:13:31;;;;;;;11.15;0.57;;;;;;;3.42;79.64;102403.22;5000414;28;20054;-76
2024/01/28 07:15:59;;;;;;;16.80;0.82;;;;;;;3.40;79.67;102398.81;5001870;28;20080;-76
2024/01/28 07:18:26;;;;;;;9.65;1.25;;;;;;;3.43;79.58;102409.25;5002777;28;20497;-77
2024/01/28 07:20:53;;;;;;;15.07;0.43;;;;;;;3.43;79.64;102399.78;5003010;28;20056;-75
2024/01/28 07:23:20;;;;;;;11.38;0.75;;;;;;;3.43;79.85;102398.91;5002343;28;20077;-75
2024/01/28 07:25:47;;;;;;;12.88;0.50;;;;;;;3.45;79.82;102402.44;4999912;28;20046;-74
2024/01/28 07:28:14;;;;;;;10.68;0.60;;;;;;;3.45;79.77;102405.91;4997457;28;20069;-75
2024/01/28 07:30:41;;;;;;;7.85;0.50;;;;;;;3.45;79.76;102398.13;5001895;28;20539;-75
2024/01/28 07:33:10;;;;;;;10.82;0.93;;;;;;;3.45;79.72;102397.25;5002318;28;20054;-74
2024/01/28 07:35:37;;;;;;;11.25;0.38;;;;;;;3.47;79.82;102408.56;5000459;28;20041;-74
2024/01/28 07:38:04;;;;;;;10.07;1.17;;;;;;;3.48;79.74;102415.47;4999564;28;20134;-74
2024/01/28 07:40:31;;;;;;;8.23;0.57;;;;;;;3.46;79.56;102414.53;5001065;28;20054;-74
2024/01/28 07:42:58;;;;;;;14.07;1.67;;;;;;;3.48;79.77;102420.66;5000645;28;20046;-74
2024/01/28 07:45:25;;;;;;;5.60;0.77;;;;;;;3.48;79.64;102428.41;5001027;28;20085;-74
2024/01/28 07:47:52;;;;;;;7.57;0.35;;;;;;;3.49;79.61;102427.56;4997203;28;20124;-74
2024/01/28 07:50:20;;;;;;;9.68;0.35;;;;;;;3.49;79.77;102430.16;5001991;28;20074;-75
2024/01/28 07:52:48;;;;;;;4.65;1.02;;;;;;;3.48;79.56;102424.13;5000114;28;20096;-75
2024/01/28 07:55:15;;;;;;;15.77;0.70;;;;;;;3.50;79.51;102424.19;4997097;28;20069;-74
2024/01/28 07:57:42;;;;;;;9.63;0.65;;;;;;;3.50;79.79;102424.19;5000990;28;20058;-74
2024/01/28 08:00:11;;;;;;;12.93;1.38;;;;;;;3.50;79.88;102421.59;5001205;28;20160;-75
2024/01/28 08:02:38;;;;;;;22.75;0.57;;;;;;;3.52;80.09;102430.25;4997444;28;20046;-74
2024/01/28 08:05:05;;;;;;;11.05;0.55;;;;;;;3.52;79.97;102435.44;5002189;28;20069;-75
2024/01/28 08:07:34;;;;;;;6.80;0.40;;;;;;;3.54;80.00;102433.78;5002532;28;20042;-74
2024/01/28 08:10:01;;;;;;;6.95;0.63;;;;;;;3.55;79.88;102434.66;5001659;28;20082;-74
2024/01/28 08:12:28;;;;;;;18.20;0.80;;;;;;;3.55;80.00;102430.38;4995071;28;20046;-76
2024/01/28 08:14:55;;;;;;;10.90;1.27;;;;;;;3.57;80.12;102423.53;4999028;28;20205;-76
2024/01/28 08:17:22;;;;;;;8.93;1.25;;;;;;;3.57;79.74;102420.94;4992740;28;20081;-76
2024/01/28 08:19:49;;;;;;;10.23;1.10;;;;;;;3.59;79.96;102426.19;5000387;28;20512;-76
2024/01/28 08:22:16;;;;;;;9.48;2.35;;;;;;;3.58;79.73;102438.25;4995591;28;20117;-76
2024/01/28 08:24:45;;;;;;;6.95;0.47;;;;;;;3.59;79.75;102426.19;4996986;28;20088;-75
2024/01/28 08:27:12;;;;;;;11.48;0.70;;;;;;;3.59;79.70;102421.88;5000683;28;20081;-76
2024/01/28 08:29:39;;;;;;;8.48;0.40;;;;;;;3.59;79.92;102427.06;4994927;28;20093;-75
2024/01/28 08:32:06;;;;;;;12.45;0.60;;;;;;;3.60;80.00;102420.16;4990736;28;20053;-80
2024/01/28 08:34:33;;;;;;;9.45;0.52;;;;;;;3.61;79.91;102427.09;5007300;28;20077;-81
2024/01/28 08:37:00;;;;;;;3.45;0.40;;;;;;;3.60;79.96;102435.69;5006771;28;20077;-81
2024/01/28 08:39:27;;;;;;;8.32;0.75;;;;;;;3.61;79.97;102443.53;5002699;28;20082;-80
2024/01/28 08:41:55;;;;;;;7.60;0.57;;;;;;;3.62;79.93;102457.34;5003594;28;20081;-75
2024/01/28 08:44:22;;;;;;;10.65;2.20;;;;;;;3.62;79.91;102467.69;4996604;28;20046;-74
2024/01/28 08:46:49;;;;;;;9.30;0.60;;;;;;;3.63;79.96;102480.69;4999087;28;20046;-75
2024/01/28 08:49:16;;;;;;;3.88;0.35;;;;;;;3.63;80.06;102485.84;4997996;28;20584;-74
2024/01/28 08:51:43;;;;;;;7.47;1.20;;;;;;;3.64;79.95;102482.44;4999624;28;20708;-75
2024/01/28 08:54:12;;;;;;;9.40;0.50;;;;;;;3.65;79.72;102483.31;4997803;28;20134;-74
2024/01/28 08:56:39;;;;;;;10.40;0.85;;;;;;;3.66;79.99;102488.53;5000119;28;20826;-74
2024/01/28 08:59:08;;;;;;;5.10;0.40;;;;;;;3.65;79.68;102486.78;5000761;28;20073;-75
2024/01/28 09:01:35;;;;;;;9.50;1.27;;;;;;;3.66;79.90;102485.06;4998587;28;20082;-74
2024/01/28 09:04:02;;;;;;;6.53;0.52;;;;;;;3.65;79.73;102484.19;4997666;28;20077;-74
2024/01/28 09:06:29;;;;;;;9.60;1.77;;;;;;;3.64;79.70;102477.28;4992942;28;20134;-74
2024/01/28 09:08:56;;;;;;;11.13;0.70;;;;;;;3.67;79.93;102477.38;4996421;28;20464;-74
2024/01/28 09:11:23;;;;;;;10.02;0.45;;;;;;;3.68;79.80;102475.66;4995480;28;20121;-74
2024/01/28 09:13:50;;;;;;;9.15;0.45;;;;;;;3.67;79.85;102484.25;4993936;28;20141;-75
2024/01/28 09:16:18;;;;;;;5.07;0.95;;;;;;;3.67;79.54;102486.84;4998264;28;20747;-75
2024/01/28 09:18:45;;;;;;;9.73;1.02;;;;;;;3.67;79.56;102487.72;4993121;28;20078;-74
2024/01/28 09:21:12;;;;;;;9.35;1.48;;;;;;;3.68;79.77;102499.84;4998236;28;20056;-74
2024/01/28 09:23:39;;;;;;;7.80;0.80;;;;;;;3.68;79.76;102489.47;4996361;28;20073;-75
2024/01/28 09:26:06;;;;;;;7.32;1.13;;;;;;;3.69;79.75;102486.03;4989596;28;20467;-75
2024/01/28 09:28:33;;;;;;;8.75;0.60;;;;;;;3.69;79.53;102486.03;4996679;28;20050;-75
2024/01/28 09:31:00;;;;;;;4.35;1.00;;;;;;;3.69;79.75;102495.53;4996045;28;20077;-74
2024/01/28 09:33:28;;;;;;;10.23;0.40;;;;;;;3.71;79.52;102496.47;4996428;28;20489;-76
2024/01/28 09:35:55;;;;;;;10.02;0.70;;;;;;;3.72;79.50;102501.72;4996173;28;20485;-75
2024/01/28 09:38:22;;;;;;;9.40;1.13;;;;;;;3.71;79.42;102494.75;4996347;28;20475;-75
2024/01/28 09:40:49;;;;;;;11.98;0.82;;;;;;;3.71;79.49;102494.75;4996033;28;20109;-75
2024/01/28 09:43:22;;;;;;;13.15;1.20;;;;;;;3.74;79.43;102484.50;4997858;28;20083;-75
2024/01/28 09:45:50;;;;;;;5.40;0.30;;;;;;;3.73;79.26;102472.41;4997107;28;20552;-75
2024/01/28 09:48:17;;;;;;;8.82;0.68;;;;;;;3.73;79.13;102469.81;4994381;28;20042;-76
2024/01/28 09:50:46;;;;;;;6.45;0.43;;;;;;;3.71;79.38;102458.50;4998584;28;20504;-74
2024/01/28 09:53:14;;;;;;;13.40;1.02;;;;;;;3.74;79.44;102462.91;4997349;28;20088;-74
2024/01/28 09:55:40;;;;;;;7.20;0.73;;;;;;;3.74;79.38;102452.56;4996382;28;20037;-74
2024/01/28 09:58:07;;;;;;;12.60;1.27;;;;;;;3.73;79.38;102464.63;4998074;28;20509;-75
2024/01/28 10:00:34;;;;;;;8.15;0.35;;;;;;;3.74;79.21;102457.72;4996642;28;20512;-74
2024/01/28 10:03:01;;;;;;;6.63;1.08;;;;;;;3.76;79.44;102465.56;4994107;28;20122;-74
2024/01/28 10:05:28;;;;;;;10.43;1.00;;;;;;;3.76;79.13;102466.44;4997265;28;20113;-74
2024/01/28 10:08:02;;;;;;;8.52;0.52;;;;;;;3.77;79.21;102475.94;4997395;28;20133;-75
2024/01/28 10:10:29;;;;;;;9.25;1.38;;;;;;;3.77;79.26;102478.53;4994498;28;20560;-75
2024/01/28 10:12:58;;;;;;;6.38;0.35;;;;;;;3.79;79.30;102484.66;4996205;28;20066;-74
2024/01/28 10:15:27;;;;;;;10.43;0.70;;;;;;;3.80;79.18;102480.34;4996466;28;20097;-75
2024/01/28 10:17:54;;;;;;;9.25;0.40;;;;;;;3.77;79.10;102475.09;4997738;28;20042;-74
2024/01/28 10:20:24;;;;;;;10.85;0.50;;;;;;;3.81;78.99;102483.00;4994762;28;20162;-74
2024/01/28 10:22:52;;;;;;;6.07;0.60;;;;;;;3.83;79.27;102472.69;4995712;28;20128;-75
2024/01/28 10:25:22;;;;;;;8.13;0.93;;;;;;;3.83;79.35;102475.28;4997588;28;20140;-74
2024/01/28 10:27:50;;;;;;;5.57;0.40;;;;;;;3.84;79.02;102490.88;5001073;28;20046;-74
2024/01/28 10:30:19;;;;;;;7.22;1.25;;;;;;;3.85;78.95;102487.44;4997178;28;20050;-75
2024/01/28 10:32:46;;;;;;;13.65;0.40;;;;;;;3.86;79.14;102489.19;4999975;28;20045;-74
2024/01/28 10:35:16;;;;;;;9.77;0.40;;;;;;;3.87;78.96;102485.78;4997913;28;20620;-76
2024/01/28 10:37:43;;;;;;;7.57;1.05;;;;;;;3.89;79.17;102473.75;5000037;28;20053;-74
2024/01/28 10:40:11;;;;;;;8.00;0.40;;;;;;;3.90;79.17;102469.47;4997964;28;20421;-74
2024/01/28 10:42:41;;;;;;;12.38;0.40;;;;;;;3.91;79.03;102486.75;4997837;28;20140;-75
2024/01/28 10:45:10;;;;;;;4.80;0.40;;;;;;;3.92;79.33;102488.50;5001697;28;20046;-73
2024/01/28 10:47:40;;;;;;;9.38;0.60;;;;;;;3.94;78.92;102485.16;4999360;28;20129;-74
2024/01/28 10:50:09;;;;;;;7.95;0.40;;;;;;;3.94;78.96;102489.44;4995672;28;20430;-74
2024/01/28 10:52:38;;;;;;;10.52;0.82;;;;;;;3.95;79.10;102491.19;5001918;28;20574;-74
2024/01/28 10:55:06;;;;;;;6.40;0.80;;;;;;;3.93;78.92;102487.69;4995557;28;20930;-74
2024/01/28 10:57:34;;;;;;;6.88;0.40;;;;;;;3.96;79.16;102493.84;5000967;28;20081;-74
2024/01/28 11:00:05;;;;;;;9.57;0.60;;;;;;;3.97;78.80;102486.97;4998498;28;20134;-74
2024/01/28 11:02:32;;;;;;;8.40;0.88;;;;;;;3.97;79.06;102497.31;5005198;28;20043;-75
2024/01/28 11:04:59;;;;;;;7.63;0.95;;;;;;;3.99;78.74;102510.31;4997730;28;20864;-75
2024/01/28 11:07:27;;;;;;;8.38;0.30;;;;;;;4.00;78.85;102509.50;5001294;28;20100;-74
2024/01/28 11:09:54;;;;;;;11.00;0.80;;;;;;;4.00;78.89;102512.06;4998154;28;20592;-75
2024/01/28 11:12:22;;;;;;;11.10;0.50;;;;;;;4.00;78.93;102510.34;4993440;28;20124;-75
2024/01/28 11:14:52;;;;;;;8.27;1.23;;;;;;;4.02;78.73;102505.25;4998939;28;20408;-75
2024/01/28 11:17:22;;;;;;;5.53;0.47;;;;;;;3.95;78.87;102488.59;5000541;28;20153;-75
2024/01/28 11:19:49;;;;;;;8.77;0.60;;;;;;;4.02;78.71;102508.72;5000290;28;20056;-74
2024/01/28 11:22:16;;;;;;;11.05;0.82;;;;;;;4.00;78.98;102505.19;4998155;28;20140;-74
2024/01/28 11:24:53;;;;;;;9.48;0.60;;;;;;;4.01;78.53;102506.97;4995600;28;20138;-75
2024/01/28 11:27:20;;;;;;;8.80;0.75;;;;;;;4.03;78.85;102525.13;4997213;28;20527;-75
2024/01/28 11:29:48;;;;;;;4.32;0.40;;;;;;;4.02;78.66;102500.94;4996642;28;20082;-75